Time;durP1;ratioP1;P1;durP2;ratioP2;P2;SDS_P1;SDS_P2;PMS_P1;PMS_P2;Temp;Humidity;BMP_temperature;BMP_pressure;BME280_temperature;BME280_humidity;BME280_pressure;Samples;Min_cycle;Max_cycle;Signal;HPM_P1;HPM_P2
2021/03/03 00:01:28;;;;;;;4.95;3.47;;;;;;;3.58;65.30;98014.36;1725516;83;21117;-80
2021/03/03 00:03:54;;;;;;;4.53;3.30;;;;;;;3.57;65.32;98013.97;1725413;83;21119;-80
2021/03/03 00:06:20;;;;;;;4.60;3.02;;;;;;;3.59;65.25;98010.05;1725745;83;21110;-80
2021/03/03 00:08:46;;;;;;;3.30;2.85;;;;;;;3.63;65.10;98011.95;1698918;83;21114;-80
2021/03/03 00:11:12;;;;;;;3.83;2.90;;;;;;;3.66;64.99;98013.03;1725306;83;21333;-80
2021/03/03 00:13:38;;;;;;;5.33;3.27;;;;;;;3.67;65.03;98012.11;1725305;83;21277;-80
2021/03/03 00:16:05;;;;;;;3.20;2.70;;;;;;;3.68;65.00;98008.61;1698577;83;21098;-80
2021/03/03 00:18:31;;;;;;;3.83;2.75;;;;;;;3.68;65.03;98003.47;1725297;83;21130;-80
2021/03/03 00:20:58;;;;;;;4.75;3.05;;;;;;;3.68;65.07;98007.33;1725257;83;21150;-80
2021/03/03 00:23:23;;;;;;;4.25;3.72;;;;;;;3.67;65.12;98006.97;1725333;83;21083;-80
2021/03/03 00:25:49;;;;;;;3.83;2.80;;;;;;;3.65;65.22;98002.39;1725363;83;21126;-80
2021/03/03 00:28:16;;;;;;;3.27;2.47;;;;;;;3.59;65.28;97999.30;1720757;83;21465;-80
2021/03/03 00:30:42;;;;;;;4.67;2.90;;;;;;;3.58;65.28;97996.83;1711657;83;21241;-80
2021/03/03 00:33:08;;;;;;;4.25;3.35;;;;;;;3.56;65.35;97994.33;1711779;83;21120;-80
2021/03/03 00:35:34;;;;;;;5.78;3.50;;;;;;;3.53;65.41;97991.97;1711828;83;21330;-80
2021/03/03 00:38:00;;;;;;;4.72;3.50;;;;;;;3.52;65.49;97987.75;1712057;83;21106;-80
2021/03/03 00:40:26;;;;;;;4.65;3.62;;;;;;;3.50;65.58;97984.92;1711758;83;21390;-80
2021/03/03 00:42:52;;;;;;;4.20;2.98;;;;;;;3.49;65.70;97989.70;1711840;84;21119;-80
2021/03/03 00:45:18;;;;;;;4.87;3.20;;;;;;;3.49;65.57;97982.81;1711709;83;21354;-80
2021/03/03 00:47:44;;;;;;;3.70;3.30;;;;;;;3.53;65.35;97981.69;1711717;83;21091;-80
2021/03/03 00:50:11;;;;;;;5.90;3.40;;;;;;;3.55;65.33;97979.84;1711692;84;21153;-80
2021/03/03 00:52:36;;;;;;;6.50;2.92;;;;;;;3.56;65.37;97978.09;1711822;83;21110;-80
2021/03/03 00:55:04;;;;;;;3.87;3.10;;;;;;;3.55;65.36;97970.84;1711708;83;21345;-80
2021/03/03 00:57:30;;;;;;;5.85;4.25;;;;;;;3.54;65.41;97974.33;1711758;84;21443;-80
2021/03/03 00:59:57;;;;;;;5.75;3.90;;;;;;;3.52;65.38;97969.76;1691549;84;21155;-80
2021/03/03 01:02:23;;;;;;;5.67;4.08;;;;;;;3.50;65.44;97965.18;1711735;84;21119;-80
2021/03/03 01:04:49;;;;;;;5.72;3.83;;;;;;;3.49;65.42;97968.67;1711777;84;21127;-80
2021/03/03 01:07:15;;;;;;;5.20;4.20;;;;;;;3.48;65.40;97966.21;1711830;83;21325;-80
2021/03/03 01:09:41;;;;;;;5.45;3.98;;;;;;;3.47;65.47;97964.56;1691460;84;21362;-80
2021/03/03 01:12:08;;;;;;;7.97;4.30;;;;;;;3.46;65.48;97972.73;1711746;83;21091;-80
2021/03/03 01:14:34;;;;;;;6.45;4.80;;;;;;;3.46;65.46;97966.77;1711942;83;21277;-80
2021/03/03 01:17:00;;;;;;;7.95;5.53;;;;;;;3.45;65.43;97963.84;1711925;83;21126;-80
2021/03/03 01:19:26;;;;;;;5.72;3.70;;;;;;;3.44;65.37;97962.20;1711684;83;21162;-80
2021/03/03 01:21:54;;;;;;;4.78;3.83;;;;;;;3.42;65.33;97961.48;1711766;83;21098;-80
2021/03/03 01:24:20;;;;;;;5.47;3.50;;;;;;;3.42;65.34;97960.19;1711964;84;21147;-80
2021/03/03 01:26:46;;;;;;;5.08;3.85;;;;;;;3.42;65.37;97958.91;1711748;83;21091;-80
2021/03/03 01:29:12;;;;;;;5.22;3.37;;;;;;;3.39;65.43;97957.33;1711568;83;21290;-80
2021/03/03 01:31:39;;;;;;;4.70;3.37;;;;;;;3.38;65.47;97958.25;1711758;84;21110;-80
2021/03/03 01:34:05;;;;;;;5.70;3.35;;;;;;;3.37;65.52;97953.22;1711915;83;21261;-80
2021/03/03 01:36:31;;;;;;;4.75;3.10;;;;;;;3.35;65.61;97949.47;1711648;83;21524;-80
2021/03/03 01:38:57;;;;;;;5.92;3.62;;;;;;;3.34;65.74;97943.97;1711698;84;21134;-80
2021/03/03 01:41:23;;;;;;;4.40;3.02;;;;;;;3.32;65.78;97948.38;1711710;83;21099;-80
2021/03/03 01:43:49;;;;;;;4.33;3.62;;;;;;;3.31;65.94;97942.88;1711788;84;21118;-80
2021/03/03 01:46:15;;;;;;;5.97;4.00;;;;;;;3.28;65.95;97943.91;1711658;84;21366;-80
2021/03/03 01:48:41;;;;;;;4.60;3.52;;;;;;;3.29;65.95;97943.45;1711724;83;21143;-80
2021/03/03 01:51:07;;;;;;;4.55;3.62;;;;;;;3.28;66.00;97943.91;1711796;84;21138;-80
2021/03/03 01:53:33;;;;;;;5.33;3.58;;;;;;;3.29;66.10;97942.16;1711875;84;21138;-80
2021/03/03 01:55:59;;;;;;;6.78;4.08;;;;;;;3.30;66.04;97938.67;1711728;83;21139;-80
2021/03/03 01:58:25;;;;;;;5.53;3.77;;;;;;;3.31;66.01;97934.72;1711642;83;21095;-80
2021/03/03 02:00:51;;;;;;;4.78;3.25;;;;;;;3.33;66.00;97928.19;1711663;84;21362;-80
2021/03/03 02:03:17;;;;;;;5.37;3.95;;;;;;;3.34;66.01;97927.27;1711760;84;21122;-80
2021/03/03 02:05:44;;;;;;;4.50;3.40;;;;;;;3.34;66.02;97929.83;1711669;84;21257;-80
2021/03/03 02:08:17;;;;;;;6.15;3.72;;;;;;;3.33;66.09;97925.62;1691714;84;21329;-80
2021/03/03 02:11:02;;;;;;;5.53;3.25;;;;;;;3.27;66.19;97917.86;1711770;84;21237;-80
2021/03/03 02:13:34;;;;;;;4.92;3.02;;;;;;;3.28;66.24;97920.78;1711675;84;21314;-80
2021/03/03 02:16:02;;;;;;;4.83;3.40;;;;;;;3.26;66.28;97923.09;1711849;84;21099;-80
2021/03/03 02:18:29;;;;;;;4.12;3.25;;;;;;;3.23;66.28;97922.80;1711978;84;21237;-80
2021/03/03 02:21:19;;;;;;;4.22;3.35;;;;;;;3.22;66.28;97922.45;1711698;83;21138;-80
2021/03/03 02:23:59;;;;;;;7.05;3.65;;;;;;;3.21;66.31;97919.98;1711784;84;21123;-80
2021/03/03 02:26:33;;;;;;;3.83;3.30;;;;;;;3.17;66.29;97915.97;1711738;84;21103;-80
2021/03/03 02:29:08;;;;;;;4.75;3.22;;;;;;;3.15;66.33;97912.22;1700257;83;21256;-80
2021/03/03 02:31:34;;;;;;;3.92;3.10;;;;;;;3.16;66.30;97906.16;1732703;83;21513;-80
2021/03/03 02:34:02;;;;;;;3.67;3.02;;;;;;;3.17;66.23;97912.11;1705827;83;21114;-80
2021/03/03 02:36:28;;;;;;;4.83;3.30;;;;;;;3.16;66.23;97910.01;1732798;83;21106;-80
2021/03/03 02:38:55;;;;;;;4.55;3.58;;;;;;;3.16;66.24;97909.19;1732779;83;21117;-80
2021/03/03 02:41:21;;;;;;;5.30;3.50;;;;;;;3.15;66.31;97909.64;1732815;83;21110;-80
2021/03/03 02:43:48;;;;;;;5.62;3.70;;;;;;;3.13;66.33;97909.39;1732733;83;21114;-79
2021/03/03 02:46:14;;;;;;;5.75;3.83;;;;;;;3.11;66.42;97907.38;1732749;83;21110;-80
2021/03/03 02:48:40;;;;;;;6.03;3.92;;;;;;;3.09;66.49;97902.78;1732779;83;21714;-80
2021/03/03 02:51:07;;;;;;;5.50;3.87;;;;;;;3.07;66.54;97898.20;1732688;83;21082;-80
2021/03/03 02:53:33;;;;;;;5.20;4.12;;;;;;;3.06;66.49;97905.55;1732758;83;21130;-80
2021/03/03 02:55:59;;;;;;;6.15;4.92;;;;;;;3.03;66.51;97892.44;1732715;83;21522;-80
2021/03/03 02:58:26;;;;;;;6.55;4.85;;;;;;;3.03;66.58;97899.33;1732810;83;21133;-80
2021/03/03 03:00:54;;;;;;;9.03;5.12;;;;;;;3.01;66.68;97904.10;1732621;83;21279;-80
2021/03/03 03:03:33;;;;;;;7.10;4.30;;;;;;;3.01;66.64;97894.29;1732084;83;21336;-80
2021/03/03 03:06:02;;;;;;;6.28;3.98;;;;;;;3.03;66.56;97891.63;1733001;83;21122;-80
2021/03/03 03:08:29;;;;;;;7.47;4.70;;;;;;;3.04;66.56;97892.80;1732823;83;21097;-80
2021/03/03 03:11:02;;;;;;;6.47;4.90;;;;;;;3.05;66.54;97894.45;1732686;83;21244;-80
2021/03/03 03:13:30;;;;;;;7.58;4.78;;;;;;;3.05;66.68;97893.62;1706866;83;21102;-80
2021/03/03 03:15:57;;;;;;;7.83;5.20;;;;;;;3.03;66.70;97891.16;1732669;83;21312;-80
2021/03/03 03:18:36;;;;;;;7.20;5.20;;;;;;;3.00;66.74;97894.75;1732784;83;21126;-80
2021/03/03 03:21:03;;;;;;;6.25;4.95;;;;;;;3.00;66.76;97890.90;1732667;83;21401;-80
2021/03/03 03:23:29;;;;;;;7.60;5.40;;;;;;;2.99;66.64;97895.67;1732736;83;21122;-80
2021/03/03 03:25:55;;;;;;;5.78;4.53;;;;;;;2.98;66.60;97893.20;1732766;83;21129;-80
2021/03/03 03:28:21;;;;;;;5.12;4.22;;;;;;;2.98;66.45;97894.03;1705049;83;21439;-80
2021/03/03 03:30:47;;;;;;;5.72;4.45;;;;;;;2.97;66.49;97891.56;1725222;83;21142;-80
2021/03/03 03:33:14;;;;;;;7.12;4.35;;;;;;;2.96;66.53;97891.20;1725262;83;21296;-80
2021/03/03 03:35:40;;;;;;;5.53;4.28;;;;;;;2.95;66.48;97886.53;1725283;83;21539;-80
2021/03/03 03:38:06;;;;;;;5.83;4.53;;;;;;;2.98;66.45;97886.33;1725430;83;21137;-80
2021/03/03 03:40:32;;;;;;;6.53;5.00;;;;;;;3.00;66.44;97887.51;1698323;83;21157;-80
2021/03/03 03:42:58;;;;;;;4.72;4.25;;;;;;;2.99;66.48;97880.27;1725171;83;21118;-80
2021/03/03 03:45:25;;;;;;;7.75;5.37;;;;;;;3.00;66.47;97875.95;1653043;83;21103;-80
2021/03/03 03:47:51;;;;;;;5.95;4.70;;;;;;;2.99;66.42;97880.27;1698423;83;21240;-80
2021/03/03 03:50:19;;;;;;;6.08;4.35;;;;;;;2.97;66.38;97873.13;1725365;83;21126;-80
2021/03/03 03:52:45;;;;;;;7.12;4.08;;;;;;;2.98;66.36;97882.94;1725153;83;21122;-80
2021/03/03 03:55:12;;;;;;;7.40;4.42;;;;;;;2.97;66.37;97879.55;1725392;83;21118;-80
2021/03/03 03:57:51;;;;;;;5.97;4.65;;;;;;;2.96;66.38;97879.19;1698630;83;21248;-80
2021/03/03 04:00:20;;;;;;;6.10;4.67;;;;;;;2.96;66.36;97874.05;1698625;83;21150;-80
2021/03/03 04:02:47;;;;;;;7.67;4.85;;;;;;;2.95;66.46;97871.12;1725211;83;21094;-80
2021/03/03 04:05:14;;;;;;;5.55;4.10;;;;;;;2.96;66.43;97879.65;1725220;83;21098;-80
2021/03/03 04:07:40;;;;;;;6.40;4.20;;;;;;;2.94;66.45;97876.36;1725208;83;21245;-80
2021/03/03 04:10:08;;;;;;;7.22;4.72;;;;;;;2.93;66.49;97874.71;1725274;83;21129;-80
2021/03/03 04:12:34;;;;;;;6.25;4.90;;;;;;;2.93;66.57;97873.43;1725115;83;21158;-80
2021/03/03 04:15:00;;;;;;;6.47;4.40;;;;;;;2.91;66.80;97870.93;1725364;83;21114;-80
2021/03/03 04:17:26;;;;;;;9.75;5.30;;;;;;;2.89;67.00;97864.25;1698454;83;21564;-80
2021/03/03 04:19:52;;;;;;;7.30;5.10;;;;;;;2.88;67.11;97869.84;1725178;83;21145;-80
2021/03/03 04:22:18;;;;;;;6.33;4.95;;;;;;;2.91;67.22;97863.69;1725200;83;21255;-80
2021/03/03 04:24:45;;;;;;;6.92;5.35;;;;;;;2.93;67.37;97869.12;1725174;83;21313;-80
2021/03/03 04:27:11;;;;;;;8.38;5.55;;;;;;;2.93;67.41;97866.55;1725224;83;21244;-80
2021/03/03 04:29:37;;;;;;;7.30;5.50;;;;;;;2.93;67.50;97866.55;1724942;83;21139;-80
2021/03/03 04:32:03;;;;;;;7.58;5.47;;;;;;;2.93;67.62;97864.44;1725202;83;21106;-80
2021/03/03 04:37:13;;;;;;;8.40;5.40;;;;;;;2.96;67.74;97859.11;1780697;79;22894;-80
2021/03/03 04:39:39;;;;;;;6.78;5.35;;;;;;;2.92;67.78;97864.05;1754239;82;21166;-80
2021/03/03 04:42:06;;;;;;;6.75;5.20;;;;;;;2.91;67.85;97864.52;1754302;82;21153;-80
2021/03/03 04:44:33;;;;;;;6.85;5.05;;;;;;;2.92;67.87;97862.30;1754497;81;21150;-80
2021/03/03 04:46:59;;;;;;;10.00;5.15;;;;;;;2.94;67.78;97855.81;1754100;82;21122;-80
2021/03/03 04:49:25;;;;;;;7.28;4.65;;;;;;;2.96;67.64;97856.54;1753782;82;21524;-80
2021/03/03 04:51:51;;;;;;;5.28;4.10;;;;;;;2.95;67.41;97853.61;1754087;82;21256;-80
2021/03/03 04:54:17;;;;;;;5.78;4.85;;;;;;;2.95;67.21;97851.86;1754014;82;21126;-80
2021/03/03 04:56:43;;;;;;;5.58;3.75;;;;;;;2.96;66.97;97850.94;1754166;81;21158;-80
2021/03/03 04:59:09;;;;;;;6.37;4.55;;;;;;;2.94;66.80;97853.25;1754232;82;21358;-80
2021/03/03 05:01:36;;;;;;;6.40;4.47;;;;;;;2.91;66.62;97841.41;1754379;82;21149;-80
2021/03/03 05:04:02;;;;;;;4.87;4.05;;;;;;;2.92;66.57;97844.80;1754288;81;21170;-80
2021/03/03 05:06:28;;;;;;;6.42;4.05;;;;;;;2.89;66.46;97839.41;1724668;82;21102;-80
2021/03/03 05:08:54;;;;;;;5.55;3.87;;;;;;;2.88;66.39;97842.89;1754467;81;21589;-80
2021/03/03 05:11:23;;;;;;;5.40;3.70;;;;;;;2.88;66.31;97839.50;1724587;82;21186;-80
2021/03/03 05:13:49;;;;;;;5.70;3.98;;;;;;;2.89;66.23;97843.25;1754245;82;21162;-80
2021/03/03 05:16:15;;;;;;;6.50;4.22;;;;;;;2.88;66.14;97839.04;1754271;81;21170;-80
2021/03/03 05:18:42;;;;;;;5.00;3.90;;;;;;;2.87;66.17;97836.11;1754157;81;21421;-80
2021/03/03 05:21:08;;;;;;;6.50;4.50;;;;;;;2.86;66.14;97840.89;1754205;82;21150;-80
2021/03/03 05:23:35;;;;;;;7.33;4.75;;;;;;;2.85;66.29;97835.39;1754275;82;21166;-79
2021/03/03 05:26:02;;;;;;;6.10;4.40;;;;;;;2.86;66.34;97835.75;1754112;82;21122;-79
2021/03/03 05:28:28;;;;;;;7.65;4.28;;;;;;;2.87;66.37;97840.42;1755024;82;21129;-80
2021/03/03 05:30:55;;;;;;;5.47;3.92;;;;;;;2.87;66.51;97835.29;1755068;82;21265;-80
2021/03/03 05:33:32;;;;;;;6.00;4.28;;;;;;;2.88;66.61;97833.91;1755048;82;21106;-80
2021/03/03 05:36:01;;;;;;;6.87;4.50;;;;;;;2.89;66.70;97837.30;1749627;81;21151;-80
2021/03/03 05:38:27;;;;;;;6.97;4.72;;;;;;;2.89;66.90;97831.70;1741820;82;21262;-80
2021/03/03 05:40:54;;;;;;;9.80;5.60;;;;;;;2.93;67.24;97831.06;1742139;82;21083;-80
2021/03/03 05:43:20;;;;;;;8.78;5.20;;;;;;;2.96;67.57;97829.12;1741775;82;21334;-80
2021/03/03 05:45:46;;;;;;;9.28;6.08;;;;;;;2.99;67.87;97826.34;1741694;82;21217;-80
2021/03/03 05:48:49;;;;;;;8.23;6.03;;;;;;;3.04;68.03;97831.64;1741278;82;21130;-80
2021/03/03 05:51:15;;;;;;;7.30;5.17;;;;;;;3.05;68.06;97825.58;1727822;82;21127;-80
2021/03/03 05:53:41;;;;;;;7.90;5.65;;;;;;;3.07;68.02;97828.86;1741255;82;21130;-80
2021/03/03 05:56:09;;;;;;;9.95;5.50;;;;;;;3.08;68.07;97833.08;1741147;82;21119;-80
2021/03/03 05:58:37;;;;;;;7.35;5.42;;;;;;;3.12;68.13;97829.41;1720481;82;21114;-80
2021/03/03 06:01:05;;;;;;;8.33;5.95;;;;;;;3.16;68.34;97828.28;1741152;82;21131;-80
2021/03/03 06:03:31;;;;;;;7.95;5.95;;;;;;;3.22;68.52;97829.15;1719301;82;21103;-80
2021/03/03 06:05:57;;;;;;;8.50;5.97;;;;;;;3.24;68.83;97822.16;1741172;82;21127;-80
2021/03/03 06:08:26;;;;;;;8.10;5.78;;;;;;;3.26;69.04;97825.02;1741353;82;21075;-80
2021/03/03 06:10:54;;;;;;;10.20;6.75;;;;;;;3.27;69.14;97826.66;1741463;81;21237;-80
2021/03/03 06:13:20;;;;;;;8.63;6.22;;;;;;;3.28;69.49;97826.20;1720269;82;21131;-80
2021/03/03 06:15:47;;;;;;;8.30;6.20;;;;;;;3.29;69.78;97821.42;1720586;82;21477;-80
2021/03/03 06:18:15;;;;;;;9.05;6.00;;;;;;;3.33;69.77;97821.56;1741176;82;21229;-80
2021/03/03 06:20:44;;;;;;;7.03;5.75;;;;;;;3.39;69.82;97819.05;1720527;82;21083;-80
2021/03/03 06:23:27;;;;;;;7.92;5.70;;;;;;;3.43;69.90;97814.91;1720001;82;21515;-80
2021/03/03 06:26:05;;;;;;;7.75;6.28;;;;;;;3.48;69.89;97810.73;1741199;82;21099;-80
2021/03/03 06:28:36;;;;;;;7.53;5.05;;;;;;;3.52;69.87;97811.70;1741220;82;21103;-80
2021/03/03 06:31:34;;;;;;;7.33;4.55;;;;;;;3.52;69.92;97805.74;1741109;81;21314;-80
2021/03/03 06:34:15;;;;;;;6.55;4.70;;;;;;;3.52;69.86;97805.28;1741330;82;21249;-80
2021/03/03 06:36:46;;;;;;;6.08;3.98;;;;;;;3.53;69.68;97804.35;1741083;81;21107;-80
2021/03/03 06:39:31;;;;;;;5.70;4.33;;;;;;;3.53;69.46;97800.50;1741266;82;21131;-80
2021/03/03 06:41:59;;;;;;;4.40;3.10;;;;;;;3.54;69.36;97806.45;1741225;82;21323;-80
2021/03/03 06:44:46;;;;;;;4.28;2.90;;;;;;;3.57;69.00;97806.25;1741187;82;21107;-81
2021/03/03 06:47:12;;;;;;;4.90;3.10;;;;;;;3.61;68.56;97811.09;1741154;82;21107;-81
2021/03/03 06:49:38;;;;;;;4.30;3.22;;;;;;;3.66;68.25;97809.50;1720268;82;21127;-81
2021/03/03 06:52:05;;;;;;;5.20;3.22;;;;;;;3.69;68.11;97810.56;1741205;82;21107;-81
2021/03/03 06:54:31;;;;;;;4.72;3.15;;;;;;;3.72;68.11;97804.39;1741180;82;21123;-82
2021/03/03 06:56:58;;;;;;;4.70;3.05;;;;;;;3.74;68.10;97808.96;1741110;82;21163;-81
2021/03/03 06:59:30;;;;;;;4.45;3.47;;;;;;;3.75;68.15;97801.63;1741074;82;21319;-81
2021/03/03 07:02:09;;;;;;;4.37;3.35;;;;;;;3.77;68.08;97806.20;1741226;81;21314;-81
2021/03/03 07:04:41;;;;;;;4.85;3.30;;;;;;;3.79;68.29;97813.34;1741154;82;21327;-81
2021/03/03 07:07:17;;;;;;;3.62;3.02;;;;;;;3.80;68.25;97814.52;1741048;82;21163;-82
2021/03/03 07:09:49;;;;;;;3.92;3.17;;;;;;;3.82;68.17;97810.09;1740841;82;21317;-82
2021/03/03 07:12:19;;;;;;;5.12;3.10;;;;;;;3.87;68.01;97814.91;1741096;82;21104;-81
2021/03/03 07:14:57;;;;;;;4.87;3.40;;;;;;;3.94;67.89;97811.48;1741228;81;21245;-81
2021/03/03 07:17:24;;;;;;;4.47;3.17;;;;;;;4.01;67.86;97811.41;1741194;82;21130;-81
2021/03/03 07:19:52;;;;;;;3.90;3.30;;;;;;;4.13;67.74;97809.27;1720253;82;21126;-81
2021/03/03 07:22:33;;;;;;;5.30;3.90;;;;;;;4.24;67.47;97807.25;1741206;82;21114;-82
2021/03/03 07:25:16;;;;;;;7.30;5.20;;;;;;;4.36;67.40;97808.47;1741476;82;21122;-81
2021/03/03 07:27:44;;;;;;;5.50;4.22;;;;;;;4.48;67.20;97805.50;1741088;82;21118;-81
2021/03/03 07:30:15;;;;;;;7.35;4.87;;;;;;;4.57;67.14;97802.75;1741283;82;21083;-81
2021/03/03 07:32:42;;;;;;;6.20;3.90;;;;;;;4.62;67.10;97801.48;1740801;82;21139;-81
2021/03/03 07:35:09;;;;;;;5.12;3.30;;;;;;;4.70;67.10;97803.03;1741173;82;21147;-82
2021/03/03 07:37:40;;;;;;;4.08;3.27;;;;;;;4.76;67.38;97803.89;1747909;81;21115;-81
2021/03/03 07:40:11;;;;;;;4.70;3.15;;;;;;;4.86;67.39;97797.59;1748988;82;21575;-81
2021/03/03 07:42:39;;;;;;;3.97;3.07;;;;;;;4.97;67.25;97796.82;1727774;82;21122;-81
2021/03/03 07:45:10;;;;;;;4.47;3.02;;;;;;;5.04;67.16;97792.41;1719581;83;21134;-81
2021/03/03 07:47:39;;;;;;;4.67;3.20;;;;;;;5.13;66.94;97788.32;1719681;83;21126;-81
2021/03/03 07:50:11;;;;;;;4.87;3.50;;;;;;;5.25;66.57;97787.42;1719790;83;21146;-81
2021/03/03 07:52:40;;;;;;;4.22;3.22;;;;;;;5.34;66.37;97787.19;1719749;83;21226;-82
2021/03/03 07:55:07;;;;;;;5.05;3.45;;;;;;;5.42;66.60;97786.16;1719573;83;21125;-81
2021/03/03 07:57:34;;;;;;;3.85;2.92;;;;;;;5.49;66.27;97783.46;1719518;83;21329;-81
2021/03/03 08:00:08;;;;;;;3.27;2.40;;;;;;;5.59;66.13;97784.89;1719520;83;21377;-81
2021/03/03 08:02:55;;;;;;;3.87;2.98;;;;;;;5.65;66.20;97781.83;1719647;83;21126;-82
2021/03/03 08:05:38;;;;;;;3.92;2.50;;;;;;;5.75;65.34;97784.54;1719673;83;21114;-81
2021/03/03 08:08:24;;;;;;;6.08;3.52;;;;;;;5.85;65.67;97781.12;1719568;83;21107;-81
2021/03/03 08:10:51;;;;;;;6.10;4.30;;;;;;;5.97;65.07;97778.92;1718997;83;21099;-81
2021/03/03 08:13:32;;;;;;;4.78;3.00;;;;;;;6.11;64.52;97771.88;1718779;83;21163;-81
2021/03/03 08:16:03;;;;;;;4.83;3.17;;;;;;;6.21;64.75;97776.68;1717856;83;21183;-81
2021/03/03 08:18:34;;;;;;;6.33;4.72;;;;;;;6.29;64.52;97773.83;1719551;83;21119;-82
2021/03/03 08:21:12;;;;;;;9.55;6.65;;;;;;;6.39;64.45;97770.06;1719527;83;21107;-82
2021/03/03 08:24:01;;;;;;;8.38;5.67;;;;;;;6.57;64.66;97771.65;1719713;83;21226;-82
2021/03/03 08:26:33;;;;;;;16.35;9.68;;;;;;;6.71;64.55;97762.80;1719579;83;21102;-82
2021/03/03 08:29:18;;;;;;;16.20;10.28;;;;;;;6.87;64.51;97767.89;1719662;83;21131;-82
2021/03/03 08:31:44;;;;;;;7.22;4.92;;;;;;;7.04;64.42;97765.22;1719708;83;21106;-82
2021/03/03 08:34:11;;;;;;;15.03;10.10;;;;;;;7.15;63.72;97764.31;1719665;83;21129;-81
2021/03/03 08:36:42;;;;;;;12.43;8.23;;;;;;;7.21;63.59;97762.54;1717214;83;21142;-82
2021/03/03 08:39:17;;;;;;;6.60;4.80;;;;;;;7.33;63.67;97764.59;1711975;83;21107;-82
2021/03/03 08:41:43;;;;;;;11.88;8.58;;;;;;;7.42;63.41;97763.33;1711743;83;21123;-81
2021/03/03 08:44:16;;;;;;;26.30;17.05;;;;;;;7.52;63.97;97758.22;1711661;83;21233;-82
2021/03/03 08:46:46;;;;;;;28.35;20.15;;;;;;;7.65;63.92;97756.25;1711603;84;21158;-82
2021/03/03 08:49:18;;;;;;;26.82;20.68;;;;;;;7.83;63.96;97757.74;1712017;84;21095;-82
2021/03/03 08:51:48;;;;;;;23.18;15.70;;;;;;;7.95;63.67;97751.97;1711869;83;21154;-82
2021/03/03 08:54:19;;;;;;;26.48;17.73;;;;;;;8.04;63.93;97753.30;1711783;83;21146;-82
2021/03/03 08:56:46;;;;;;;24.57;16.73;;;;;;;8.16;63.68;97751.91;1711678;83;21156;-82
2021/03/03 08:59:42;;;;;;;22.00;14.95;;;;;;;8.29;63.11;97752.45;1711598;84;21110;-82
2021/03/03 09:02:18;;;;;;;22.05;15.25;;;;;;;8.47;63.40;97745.72;1711665;84;21135;-82
2021/03/03 09:04:47;;;;;;;28.83;18.00;;;;;;;8.62;63.14;97746.11;1711615;83;21083;-82
2021/03/03 09:07:26;;;;;;;16.42;10.45;;;;;;;8.71;62.91;97742.72;1711732;84;21433;-82
2021/03/03 09:09:59;;;;;;;16.73;11.08;;;;;;;8.81;63.35;97742.25;1711621;83;21326;-82
2021/03/03 09:12:30;;;;;;;16.45;11.35;;;;;;;8.92;61.91;97740.79;1711778;84;21507;-82
2021/03/03 09:15:00;;;;;;;17.82;13.88;;;;;;;9.12;61.34;97739.02;1711651;84;21107;-82
2021/03/03 09:17:30;;;;;;;7.37;5.15;;;;;;;9.27;59.83;97739.36;1658130;86;21176;-82
2021/03/03 09:20:03;;;;;;;5.15;2.70;;;;;;;9.40;61.30;97736.47;1658521;86;21127;-82
2021/03/03 09:22:36;;;;;;;;;;;;;;;9.52;61.97;97736.16;1661093;86;21131;-82
2021/03/03 09:25:16;;;;;;;18.80;14.07;;;;;;;9.65;59.81;97735.03;1658626;86;20310;-82
2021/03/03 09:27:55;;;;;;;24.20;16.75;;;;;;;9.83;58.73;97731.53;1658535;86;21119;-82
2021/03/03 09:30:23;;;;;;;22.30;15.05;;;;;;;10.01;58.40;97732.88;1657894;86;21143;-82
2021/03/03 09:32:49;;;;;;;15.08;9.43;;;;;;;10.11;57.63;97727.64;1658672;86;21135;-82
2021/03/03 09:35:18;;;;;;;14.90;9.90;;;;;;;10.24;58.54;97725.52;1658536;86;21624;-82
2021/03/03 09:37:45;;;;;;;11.18;7.87;;;;;;;10.36;57.52;97723.05;1658631;86;21142;-82
2021/03/03 09:40:13;;;;;;;8.00;5.60;;;;;;;10.50;56.85;97721.72;1658579;86;21148;-82
2021/03/03 09:42:43;;;;;;;10.00;6.10;;;;;;;10.62;55.98;97717.94;1658616;86;21286;-82
2021/03/03 09:45:11;;;;;;;11.85;7.05;;;;;;;10.78;55.04;97712.88;1657843;86;21409;-82
2021/03/03 09:47:40;;;;;;;11.45;7.95;;;;;;;10.90;54.37;97712.17;1658567;86;21375;-82
2021/03/03 09:50:10;;;;;;;12.75;8.53;;;;;;;11.04;53.35;97709.48;1658597;86;21123;-82
2021/03/03 09:52:44;;;;;;;10.23;7.03;;;;;;;11.13;52.74;97708.09;1658698;86;21131;-82
2021/03/03 09:55:14;;;;;;;12.60;7.87;;;;;;;11.26;52.47;97705.09;1658587;86;21123;-82
2021/03/03 09:57:42;;;;;;;9.98;7.03;;;;;;;11.34;52.88;97715.53;1658982;86;21143;-82
2021/03/03 10:00:11;;;;;;;12.20;9.18;;;;;;;11.48;53.11;97705.04;1658554;86;21254;-82
2021/03/03 10:02:40;;;;;;;12.68;9.53;;;;;;;11.62;51.79;97708.37;1657879;86;21429;-82
2021/03/03 10:05:07;;;;;;;9.83;6.67;;;;;;;11.73;51.16;97708.59;1658607;86;21409;-82
2021/03/03 10:07:34;;;;;;;29.75;16.35;;;;;;;11.86;50.26;97705.06;1658548;86;21159;-82
2021/03/03 10:10:00;;;;;;;15.30;9.23;;;;;;;11.97;50.23;97708.70;1658651;86;21358;-82
2021/03/03 10:12:29;;;;;;;14.00;8.20;;;;;;;12.05;49.85;97708.41;1658567;86;21139;-82
2021/03/03 10:15:10;;;;;;;14.23;8.40;;;;;;;12.10;48.90;97704.84;1657927;86;21286;-82
2021/03/03 10:17:54;;;;;;;12.10;7.33;;;;;;;12.22;48.76;97704.38;1658826;86;21152;-82
2021/03/03 10:20:36;;;;;;;12.63;7.90;;;;;;;12.33;49.06;97701.94;1658543;86;21440;-82
2021/03/03 10:23:26;;;;;;;12.93;8.73;;;;;;;12.45;47.83;97694.15;1658543;86;21446;-82
2021/03/03 10:25:55;;;;;;;14.60;9.25;;;;;;;12.56;48.27;97700.36;1658722;86;21254;-82
2021/03/03 10:28:27;;;;;;;15.83;9.65;;;;;;;12.69;47.65;97689.91;1657605;86;21401;-82
2021/03/03 10:30:55;;;;;;;12.70;8.83;;;;;;;12.74;47.35;97692.37;1658743;86;21132;-82
2021/03/03 10:33:39;;;;;;;13.30;9.18;;;;;;;12.72;47.01;97689.13;1658546;86;21467;-82
2021/03/03 10:36:17;;;;;;;13.55;9.00;;;;;;;12.74;47.15;97683.74;1658598;86;21286;-82
2021/03/03 10:38:54;;;;;;;13.32;8.85;;;;;;;12.74;46.43;97681.13;1658513;85;21289;-82
2021/03/03 10:41:34;;;;;;;11.53;8.55;;;;;;;12.80;47.08;97684.37;1658716;86;21265;-82
2021/03/03 10:44:04;;;;;;;10.60;7.62;;;;;;;12.86;46.91;97677.22;1658689;86;21465;-82
2021/03/03 10:46:30;;;;;;;12.63;7.62;;;;;;;12.92;44.87;97672.64;1658631;86;21103;-83
2021/03/03 10:49:13;;;;;;;12.45;7.40;;;;;;;12.90;45.52;97666.78;1658616;86;21245;-82
2021/03/03 10:51:39;;;;;;;14.05;7.60;;;;;;;12.93;45.74;97670.36;1658274;86;21131;-82
2021/03/03 10:54:06;;;;;;;8.95;6.62;;;;;;;13.02;45.08;97665.95;1658634;86;21152;-82
2021/03/03 10:56:44;;;;;;;11.22;7.42;;;;;;;13.09;44.25;97661.20;1658535;86;21587;-82
2021/03/03 10:59:28;;;;;;;11.70;7.83;;;;;;;13.18;44.55;97658.94;1658614;86;21131;-82
2021/03/03 11:02:01;;;;;;;10.63;7.58;;;;;;;13.20;43.85;97654.37;1658530;86;21145;-82
2021/03/03 11:04:45;;;;;;;12.33;8.73;;;;;;;13.19;43.90;97649.31;1658647;86;21103;-82
2021/03/03 11:07:13;;;;;;;12.00;8.25;;;;;;;13.16;45.26;97643.88;1658596;86;21139;-82
2021/03/03 11:09:39;;;;;;;9.68;7.42;;;;;;;13.16;44.29;97639.97;1658519;86;21135;-83
2021/03/03 11:12:06;;;;;;;11.65;8.55;;;;;;;13.23;44.44;97637.55;1658598;86;21103;-82
2021/03/03 11:14:33;;;;;;;13.88;9.15;;;;;;;13.27;44.46;97638.02;1658722;86;21096;-82
2021/03/03 11:17:01;;;;;;;15.50;10.05;;;;;;;13.30;44.42;97631.97;1658465;86;21148;-82
2021/03/03 11:19:27;;;;;;;15.15;9.85;;;;;;;13.35;44.23;97631.48;1639190;86;21143;-82
2021/03/03 11:21:53;;;;;;;16.17;10.63;;;;;;;13.38;44.26;97625.92;1658547;86;21163;-83
2021/03/03 11:24:22;;;;;;;15.88;10.50;;;;;;;13.39;44.48;97623.14;1658696;86;21342;-83
2021/03/03 11:26:48;;;;;;;19.52;10.93;;;;;;;13.42;44.57;97615.45;1706066;84;21139;-82
2021/03/03 11:29:14;;;;;;;16.85;12.50;;;;;;;13.52;44.70;97616.08;1706602;84;21131;-82
2021/03/03 11:31:41;;;;;;;19.75;13.88;;;;;;;13.58;44.38;97611.97;1706672;84;21127;-82
2021/03/03 11:34:07;;;;;;;21.73;14.63;;;;;;;13.64;44.35;97606.86;1706709;84;21131;-82
2021/03/03 11:36:34;;;;;;;20.70;13.90;;;;;;;13.67;44.54;97598.71;1711657;84;21151;-82
2021/03/03 11:39:00;;;;;;;23.77;14.87;;;;;;;13.66;43.54;97602.77;1704978;83;21113;-82
2021/03/03 11:41:26;;;;;;;27.20;17.42;;;;;;;13.64;44.77;97595.60;1732699;83;21117;-82
2021/03/03 11:43:52;;;;;;;27.52;16.80;;;;;;;13.66;45.06;97594.94;1732749;83;21090;-83
2021/03/03 11:46:18;;;;;;;23.10;15.63;;;;;;;13.71;45.71;97592.64;1732786;83;21110;-82
2021/03/03 11:48:44;;;;;;;30.17;19.40;;;;;;;13.78;45.18;97581.81;1732667;83;21320;-82
2021/03/03 11:51:10;;;;;;;27.35;18.48;;;;;;;13.77;44.65;97577.58;1732743;83;21102;-82